Time;durP1;ratioP1;P1;durP2;ratioP2;P2;SDS_P1;SDS_P2;PMS_P1;PMS_P2;Temp;Humidity;BMP_temperature;BMP_pressure;BME280_temperature;BME280_humidity;BME280_pressure;Samples;Min_cycle;Max_cycle;Signal;HPM_P1;HPM_P2
2022/03/21 00:01:00;;;;;;;24.27;16.02;;;;;;;7.71;45.76;100399.84;4960621;28;20320;-64
2022/03/21 00:03:30;;;;;;;21.23;14.55;;;;;;;7.96;45.14;100438.22;4946584;28;20109;-63
2022/03/21 00:05:57;;;;;;;21.90;14.90;;;;;;;7.93;45.53;100422.84;4970720;28;20034;-64
2022/03/21 00:08:24;;;;;;;22.45;14.98;;;;;;;7.96;45.35;100427.88;4989345;28;20490;-63
2022/03/21 00:10:50;;;;;;;20.75;15.18;;;;;;;7.98;46.39;100432.97;4984141;28;20034;-63
2022/03/21 00:13:16;;;;;;;22.80;15.13;;;;;;;7.95;46.92;100440.91;4987534;28;20042;-63
2022/03/21 00:15:43;;;;;;;24.52;16.08;;;;;;;7.94;47.57;100429.72;4949785;28;20031;-62
2022/03/21 00:18:09;;;;;;;21.23;15.00;;;;;;;7.91;47.25;100429.88;4956049;28;20031;-65
2022/03/21 00:20:34;;;;;;;21.00;15.07;;;;;;;7.73;46.54;100387.66;4982406;28;20473;-63
2022/03/21 00:23:00;;;;;;;23.20;15.60;;;;;;;7.86;46.39;100427.50;4966045;28;20122;-62
2022/03/21 00:25:26;;;;;;;22.45;14.45;;;;;;;7.83;46.60;100430.28;4981748;28;20042;-64
2022/03/21 00:27:51;;;;;;;23.05;15.65;;;;;;;7.86;46.78;100430.09;4962223;28;20562;-62
2022/03/21 00:30:17;;;;;;;20.35;15.10;;;;;;;7.96;46.18;100430.47;4984364;28;20066;-63
2022/03/21 00:32:43;;;;;;;21.92;15.23;;;;;;;7.97;46.61;100426.94;4946979;28;20774;-64
2022/03/21 00:35:12;;;;;;;23.42;16.58;;;;;;;7.90;45.50;100423.00;4946778;28;20093;-63
2022/03/21 00:37:38;;;;;;;22.45;15.00;;;;;;;7.73;46.88;100395.44;4978067;28;20043;-64
2022/03/21 00:40:07;;;;;;;23.70;16.25;;;;;;;7.85;46.18;100425.03;4951789;28;20069;-63
2022/03/21 00:42:34;;;;;;;25.02;15.05;;;;;;;7.93;46.28;100422.84;4979093;28;20026;-63
2022/03/21 00:45:12;;;;;;;22.52;15.65;;;;;;;7.99;47.08;100427.69;4936932;28;20115;-64
2022/03/21 00:47:38;;;;;;;22.27;15.82;;;;;;;7.74;46.82;100372.94;4955965;28;20019;-64
2022/03/21 00:50:05;;;;;;;22.75;16.50;;;;;;;8.00;48.85;100416.41;4950276;28;20063;-63
2022/03/21 00:52:32;;;;;;;25.13;16.20;;;;;;;8.04;48.67;100422.25;4948233;28;20034;-63
2022/03/21 00:54:58;;;;;;;24.58;15.93;;;;;;;7.99;49.30;100417.31;4973033;28;20034;-63
2022/03/21 00:57:24;;;;;;;24.48;16.83;;;;;;;8.00;49.42;100410.41;4975691;28;20490;-64
2022/03/21 00:59:49;;;;;;;23.48;16.25;;;;;;;8.01;50.48;100414.66;4946618;28;20105;-62
2022/03/21 01:02:14;;;;;;;23.58;16.38;;;;;;;8.05;50.34;100422.19;4968802;28;20038;-62
2022/03/21 01:04:40;;;;;;;24.02;16.38;;;;;;;8.01;51.32;100412.91;4951610;28;20019;-63
2022/03/21 01:07:05;;;;;;;22.23;16.50;;;;;;;8.00;50.78;100411.22;4986999;28;20683;-62
2022/03/21 01:09:31;;;;;;;23.55;15.57;;;;;;;7.93;51.20;100401.28;4947170;28;20130;-63
2022/03/21 01:11:56;;;;;;;21.73;15.98;;;;;;;7.86;50.67;100411.97;4973224;28;20046;-63
2022/03/21 01:14:22;;;;;;;23.50;16.27;;;;;;;7.65;50.75;100401.03;4941243;28;20042;-62
2022/03/21 01:16:47;;;;;;;20.75;16.15;;;;;;;7.53;53.91;100408.63;4985823;28;20022;-62
2022/03/21 01:19:13;;;;;;;21.55;15.52;;;;;;;7.65;54.79;100410.56;4970360;28;20178;-63
2022/03/21 01:21:38;;;;;;;23.67;16.88;;;;;;;7.70;54.93;100411.13;4945245;28;20027;-64
2022/03/21 01:24:04;;;;;;;22.98;16.13;;;;;;;7.73;55.50;100407.56;4960987;28;20089;-63
2022/03/21 01:26:29;;;;;;;24.23;15.85;;;;;;;7.74;56.09;100407.47;4985000;28;20533;-62
2022/03/21 01:28:56;;;;;;;23.05;15.50;;;;;;;7.70;56.17;100403.34;4956624;28;20035;-64
2022/03/21 01:31:22;;;;;;;22.70;16.40;;;;;;;7.75;55.68;100400.53;4988046;28;20019;-62
2022/03/21 01:33:47;;;;;;;19.38;13.90;;;;;;;7.77;52.74;100401.28;4955608;28;20106;-62
2022/03/21 01:36:13;;;;;;;20.92;15.05;;;;;;;7.69;50.22;100397.34;4941014;28;20771;-64
2022/03/21 01:38:38;;;;;;;21.52;14.77;;;;;;;7.72;50.00;100398.97;4937625;28;20039;-63
2022/03/21 01:41:04;;;;;;;25.67;15.85;;;;;;;7.74;52.97;100404.88;4940948;28;20024;-62
2022/03/21 01:43:29;;;;;;;23.67;15.30;;;;;;;7.46;52.09;100362.34;4974829;28;20031;-64
2022/03/21 01:45:54;;;;;;;20.73;13.38;;;;;;;7.56;53.39;100361.88;4992009;28;20031;-62
2022/03/21 01:48:20;;;;;;;19.75;13.88;;;;;;;7.64;52.38;100385.56;4970318;28;20705;-63
2022/03/21 01:50:46;;;;;;;20.55;14.15;;;;;;;7.65;52.64;100385.50;4937217;28;20030;-64
2022/03/21 01:55:56;;;;;;;19.27;13.52;;;;;;;7.62;53.49;100374.47;4978788;28;20504;-62
2022/03/21 01:58:24;;;;;;;20.08;13.88;;;;;;;7.65;53.87;100382.91;4986366;28;20039;-63
2022/03/21 02:00:50;;;;;;;21.88;14.00;;;;;;;7.63;52.15;100384.75;4984587;28;20031;-62
2022/03/21 02:03:18;;;;;;;19.73;13.98;;;;;;;7.51;51.51;100359.50;4989711;28;20443;-62
2022/03/21 02:05:47;;;;;;;19.52;13.23;;;;;;;7.65;50.15;100379.50;4957647;28;20047;-62
2022/03/21 02:08:13;;;;;;;21.00;14.18;;;;;;;7.71;51.52;100379.16;4944004;28;20162;-62
2022/03/21 02:10:38;;;;;;;18.08;13.60;;;;;;;7.70;50.81;100373.16;4955869;28;20094;-64
2022/03/21 02:13:05;;;;;;;19.17;13.48;;;;;;;7.67;49.83;100369.88;4960746;28;20023;-63
2022/03/21 02:15:31;;;;;;;20.13;13.23;;;;;;;7.68;48.77;100361.19;4989305;28;20607;-63
2022/03/21 02:18:00;;;;;;;21.23;13.15;;;;;;;7.62;48.88;100359.75;4984851;28;20046;-63
2022/03/21 02:20:27;;;;;;;17.65;12.90;;;;;;;7.71;49.01;100366.19;4987138;28;20026;-63
2022/03/21 02:23:30;;;;;;;18.50;13.65;;;;;;;7.73;48.84;100359.19;4988322;28;20061;-63
2022/03/21 02:25:56;;;;;;;19.67;12.70;;;;;;;7.62;49.41;100343.41;4960497;28;20065;-62
2022/03/21 02:28:23;;;;;;;18.80;13.52;;;;;;;7.44;49.83;100347.81;4987490;28;20126;-62
2022/03/21 02:30:49;;;;;;;24.88;13.93;;;;;;;7.33;49.18;100345.78;4984425;28;20023;-63
2022/03/21 02:33:18;;;;;;;23.55;15.55;;;;;;;7.45;48.35;100341.72;4952062;28;20035;-62
2022/03/21 02:35:46;;;;;;;21.67;14.80;;;;;;;7.45;49.99;100327.03;4953137;28;20031;-64
2022/03/21 02:38:12;;;;;;;24.00;14.93;;;;;;;7.48;49.76;100332.06;4960564;28;20383;-64
2022/03/21 02:40:38;;;;;;;21.17;12.93;;;;;;;7.09;49.44;100286.66;4987890;28;20121;-64
2022/03/21 02:43:03;;;;;;;19.13;13.20;;;;;;;7.35;49.88;100332.78;4961633;28;20081;-64
2022/03/21 02:45:29;;;;;;;17.40;12.52;;;;;;;7.43;49.40;100331.47;4935309;28;20031;-62
2022/03/21 02:47:55;;;;;;;17.75;11.57;;;;;;;7.43;48.40;100333.19;4988953;28;20220;-62
2022/03/21 02:50:36;;;;;;;16.67;11.18;;;;;;;7.44;48.06;100334.88;4983369;28;20334;-62
2022/03/21 02:53:02;;;;;;;16.17;10.80;;;;;;;7.13;46.64;100284.75;4972383;28;20038;-63
2022/03/21 02:55:27;;;;;;;16.92;10.65;;;;;;;7.47;46.54;100332.13;4937488;28;20464;-63
2022/03/21 02:57:53;;;;;;;16.45;11.40;;;;;;;7.29;46.84;100302.91;4969707;28;20150;-64
2022/03/21 03:00:18;;;;;;;17.08;10.85;;;;;;;7.13;48.02;100283.00;4958468;28;20043;-63
2022/03/21 03:02:43;;;;;;;22.13;12.15;;;;;;;7.36;48.29;100317.16;4953845;28;20031;-64
2022/03/21 03:05:09;;;;;;;16.98;11.55;;;;;;;7.43;49.09;100323.69;4943194;28;20402;-63
2022/03/21 03:07:35;;;;;;;17.10;12.05;;;;;;;7.37;49.36;100318.00;4985711;28;20035;-63
2022/03/21 03:10:00;;;;;;;17.98;12.20;;;;;;;7.37;49.18;100330.94;4987123;28;20145;-62
2022/03/21 03:12:26;;;;;;;18.90;13.27;;;;;;;7.32;48.95;100326.84;4983643;28;20490;-62
2022/03/21 03:14:51;;;;;;;19.45;12.75;;;;;;;7.32;49.61;100331.19;4969213;28;20093;-63
2022/03/21 03:17:16;;;;;;;20.13;13.30;;;;;;;7.25;48.65;100311.75;4964096;28;20110;-62
2022/03/21 03:19:42;;;;;;;17.23;13.05;;;;;;;7.39;48.95;100323.94;4971768;28;20034;-63
2022/03/21 03:22:08;;;;;;;18.88;13.45;;;;;;;7.39;48.84;100319.59;4947078;28;20181;-62
2022/03/21 03:24:33;;;;;;;17.45;12.30;;;;;;;7.31;49.30;100314.00;4935642;28;20044;-63
2022/03/21 03:26:59;;;;;;;27.00;13.70;;;;;;;7.32;49.64;100324.25;4969154;28;20532;-64
2022/03/21 03:29:24;;;;;;;21.00;13.90;;;;;;;7.34;48.58;100326.78;4938594;28;20038;-63
2022/03/21 03:31:50;;;;;;;18.25;12.98;;;;;;;7.02;49.02;100271.56;4950450;28;20530;-63
2022/03/21 03:34:15;;;;;;;20.73;13.57;;;;;;;7.21;48.51;100315.38;4986704;28;20035;-62
2022/03/21 03:36:41;;;;;;;18.67;12.95;;;;;;;7.22;48.12;100314.47;4984179;28;20050;-62
2022/03/21 03:39:07;;;;;;;20.27;12.77;;;;;;;7.31;48.21;100311.41;4965362;28;20658;-62
2022/03/21 03:41:32;;;;;;;17.15;11.90;;;;;;;7.34;47.40;100320.75;4991501;28;20533;-63
2022/03/21 03:43:58;;;;;;;19.30;11.50;;;;;;;7.36;47.75;100322.34;4990412;28;20078;-62
2022/03/21 03:46:23;;;;;;;17.65;12.18;;;;;;;7.29;48.22;100314.06;4956130;28;20058;-64
2022/03/21 03:48:49;;;;;;;17.48;12.00;;;;;;;7.31;48.35;100319.16;4964625;28;20035;-63
2022/03/21 03:51:16;;;;;;;16.50;11.48;;;;;;;7.27;47.21;100321.09;4986213;28;20097;-62
2022/03/21 03:53:41;;;;;;;17.85;11.32;;;;;;;7.27;47.74;100313.31;4958133;28;20070;-63
2022/03/21 03:56:07;;;;;;;16.83;11.95;;;;;;;7.28;46.94;100320.19;4960451;28;20423;-62
2022/03/21 03:58:36;;;;;;;19.15;13.23;;;;;;;7.05;47.47;100282.59;4994724;28;20090;-64
2022/03/21 04:01:04;;;;;;;16.70;12.35;;;;;;;7.17;48.14;100319.88;4943869;28;20122;-62
2022/03/21 04:03:45;;;;;;;20.00;12.18;;;;;;;7.22;48.30;100330.00;4981400;28;20027;-63
2022/03/21 04:06:18;;;;;;;17.98;12.00;;;;;;;7.23;49.48;100313.59;4956345;28;20399;-63
2022/03/21 04:08:46;;;;;;;19.42;12.15;;;;;;;7.27;49.59;100322.84;4988638;28;20027;-63
2022/03/21 04:11:11;;;;;;;18.13;12.65;;;;;;;7.21;48.56;100326.59;4985934;28;20166;-64
2022/03/21 04:13:37;;;;;;;19.10;12.88;;;;;;;6.91;49.36;100287.66;4961869;28;20529;-64
2022/03/21 04:16:03;;;;;;;18.05;12.68;;;;;;;6.91;49.32;100287.66;4957775;28;20307;-62
2022/03/21 04:18:29;;;;;;;24.02;12.60;;;;;;;7.13;49.45;100328.72;4958216;28;20031;-64
2022/03/21 04:20:54;;;;;;;19.45;12.27;;;;;;;6.88;49.35;100282.63;4991605;28;20049;-63
2022/03/21 04:23:19;;;;;;;21.35;13.38;;;;;;;6.86;49.75;100289.63;4970081;28;20045;-63
2022/03/21 04:25:46;;;;;;;21.63;12.60;;;;;;;7.12;50.00;100340.84;4950349;28;20073;-62
2022/03/21 04:28:12;;;;;;;19.92;12.73;;;;;;;7.11;51.07;100335.75;4952945;28;20038;-63
2022/03/21 04:30:38;;;;;;;22.40;13.02;;;;;;;6.86;51.07;100292.22;4958443;28;20069;-63
2022/03/21 04:33:10;;;;;;;21.15;12.75;;;;;;;7.12;50.83;100346.00;4964108;28;20059;-64
2022/03/21 04:35:36;;;;;;;24.75;13.27;;;;;;;7.01;50.28;100331.94;4990856;28;20481;-63
2022/03/21 04:38:02;;;;;;;26.65;12.98;;;;;;;7.01;51.31;100331.94;4943191;28;20058;-63
2022/03/21 04:40:28;;;;;;;21.95;12.80;;;;;;;7.09;51.02;100343.56;4946495;28;20068;-64
2022/03/21 04:42:53;;;;;;;21.20;12.40;;;;;;;7.15;50.26;100349.34;4994646;28;20494;-64
2022/03/21 04:45:19;;;;;;;19.65;12.80;;;;;;;7.03;50.18;100354.25;4986999;28;20043;-63
2022/03/21 04:47:45;;;;;;;22.63;13.45;;;;;;;7.09;50.32;100353.94;4952582;28;20121;-64
2022/03/21 04:50:11;;;;;;;20.58;12.80;;;;;;;6.84;50.23;100312.97;4988086;28;20027;-63
2022/03/21 04:52:37;;;;;;;34.92;15.10;;;;;;;6.87;50.19;100312.00;4958060;28;20043;-65
2022/03/21 04:55:03;;;;;;;24.30;13.45;;;;;;;7.16;49.98;100358.81;4951980;28;20034;-64
2022/03/21 04:57:29;;;;;;;31.27;13.27;;;;;;;7.24;49.40;100369.56;4986133;28;20050;-62
2022/03/21 04:59:55;;;;;;;34.67;12.95;;;;;;;7.21;49.87;100373.16;4951425;28;20031;-64
2022/03/21 05:02:21;;;;;;;27.38;13.63;;;;;;;7.12;49.74;100366.72;4954971;28;20122;-63
2022/03/21 05:04:46;;;;;;;21.25;11.88;;;;;;;7.08;50.05;100372.97;4954001;28;20030;-63
2022/03/21 05:07:18;;;;;;;19.77;10.50;;;;;;;7.07;49.16;100379.03;4949551;28;20397;-62
2022/03/21 05:09:44;;;;;;;15.98;10.30;;;;;;;7.06;49.17;100379.13;4973270;28;20035;-64
2022/03/21 05:12:11;;;;;;;15.65;10.30;;;;;;;7.08;48.99;100379.88;4945647;28;20030;-62
2022/03/21 05:14:36;;;;;;;15.48;10.85;;;;;;;7.11;48.66;100388.31;4970925;28;20039;-64
2022/03/21 05:17:02;;;;;;;17.27;11.15;;;;;;;7.03;48.91;100385.28;4951421;28;20390;-64
2022/03/21 05:19:28;;;;;;;17.85;11.43;;;;;;;7.04;49.12;100393.88;4960406;28;20643;-63
2022/03/21 05:21:53;;;;;;;19.17;11.40;;;;;;;7.01;49.82;100389.72;4959589;28;20544;-62
2022/03/21 05:32:31;;;;;;;15.50;10.48;;;;;;;7.05;48.89;100403.31;4975384;28;20555;-63
2022/03/21 05:37:40;;;;;;;19.60;11.93;;;;;;;6.85;48.17;100402.56;4977389;28;20042;-63
2022/03/21 05:42:50;;;;;;;19.08;11.10;;;;;;;7.00;46.91;100398.38;4949716;28;20063;-64
2022/03/21 05:45:19;;;;;;;19.00;11.05;;;;;;;6.90;46.68;100385.09;4953247;28;20035;-62
2022/03/21 05:50:32;;;;;;;18.42;12.43;;;;;;;7.04;47.99;100402.47;4978538;28;20410;-62
2022/03/21 05:52:58;;;;;;;18.25;11.60;;;;;;;7.00;48.49;100402.72;4978303;28;20026;-62
2022/03/21 05:55:23;;;;;;;18.27;11.68;;;;;;;6.90;47.75;100403.19;4949445;28;20530;-64
2022/03/21 05:57:49;;;;;;;17.10;12.02;;;;;;;6.69;49.24;100370.66;4987403;28;20038;-63
2022/03/21 06:00:20;;;;;;;17.45;11.02;;;;;;;6.87;48.50;100412.84;4971927;28;20026;-62
2022/03/21 06:02:46;;;;;;;23.15;12.80;;;;;;;6.88;49.01;100411.91;4948568;28;20066;-62
2022/03/21 06:05:11;;;;;;;19.42;12.50;;;;;;;6.91;49.04;100416.94;4937309;28;20038;-63
2022/03/21 06:07:37;;;;;;;21.40;11.98;;;;;;;6.93;48.81;100426.28;4965194;28;20043;-62
2022/03/21 06:10:02;;;;;;;19.42;12.15;;;;;;;6.90;47.12;100423.06;4966762;28;20039;-63
2022/03/21 06:12:30;;;;;;;18.20;11.98;;;;;;;6.93;46.87;100423.69;4962625;28;20113;-64
2022/03/21 06:14:55;;;;;;;19.52;12.02;;;;;;;6.92;46.96;100426.38;4974263;28;20031;-63
2022/03/21 06:17:21;;;;;;;18.83;11.65;;;;;;;6.99;46.45;100437.25;4964547;28;20045;-63
2022/03/21 06:19:46;;;;;;;22.33;11.95;;;;;;;6.92;46.71;100434.16;4976633;28;20398;-64
2022/03/21 06:22:12;;;;;;;19.75;12.35;;;;;;;7.02;46.89;100450.84;4952848;28;20033;-63
2022/03/21 06:24:37;;;;;;;20.33;12.27;;;;;;;7.12;46.62;100446.06;4982378;28;20031;-63
2022/03/21 06:27:03;;;;;;;19.83;12.48;;;;;;;7.16;47.31;100450.19;4901833;28;20057;-64
2022/03/21 06:29:29;;;;;;;19.20;12.93;;;;;;;7.20;47.14;100456.03;4983232;28;20109;-63
2022/03/21 06:31:54;;;;;;;24.13;13.43;;;;;;;7.27;48.69;100459.97;4979326;28;20035;-62
2022/03/21 06:34:19;;;;;;;18.83;12.60;;;;;;;7.04;48.44;100427.50;4984537;28;20037;-63
2022/03/21 06:36:45;;;;;;;21.73;12.63;;;;;;;7.26;47.83;100450.53;4942524;28;20058;-63
2022/03/21 06:39:11;;;;;;;19.23;12.40;;;;;;;7.38;47.24;100459.44;4978103;28;20039;-64
2022/03/21 06:41:37;;;;;;;22.33;13.70;;;;;;;7.39;45.30;100459.34;4977566;28;20721;-62
2022/03/21 06:44:03;;;;;;;19.50;12.13;;;;;;;7.19;43.59;100413.81;4946559;28;20056;-64
2022/03/21 06:46:29;;;;;;;21.50;12.52;;;;;;;7.56;43.72;100457.66;4982613;28;20545;-62
2022/03/21 06:48:54;;;;;;;17.60;11.90;;;;;;;7.60;42.57;100466.91;4981076;28;20030;-63
2022/03/21 06:51:20;;;;;;;19.17;11.38;;;;;;;7.63;42.32;100462.41;4960281;28;20070;-62
2022/03/21 06:53:45;;;;;;;31.08;13.57;;;;;;;7.68;42.30;100465.59;4980878;28;20410;-63
2022/03/21 06:56:10;;;;;;;21.88;11.82;;;;;;;7.63;43.07;100466.72;4955801;28;20110;-62
2022/03/21 06:58:36;;;;;;;20.02;12.07;;;;;;;7.69;42.55;100474.19;4951414;28;20114;-63
2022/03/21 07:01:01;;;;;;;18.75;11.95;;;;;;;7.67;42.35;100463.09;4952200;28;20680;-64
2022/03/21 07:03:27;;;;;;;22.50;11.45;;;;;;;7.67;41.30;100468.28;4953532;28;20414;-62
2022/03/21 07:05:52;;;;;;;18.25;11.63;;;;;;;7.76;40.12;100469.50;4984714;28;20067;-62
2022/03/21 07:08:18;;;;;;;17.10;11.05;;;;;;;7.66;40.34;100470.00;4941165;28;20039;-63
2022/03/21 07:10:44;;;;;;;17.48;11.27;;;;;;;7.41;39.76;100421.28;4950257;28;20043;-63
2022/03/21 07:13:10;;;;;;;16.98;11.35;;;;;;;7.56;39.40;100460.25;4939344;28;20065;-62
2022/03/21 07:15:37;;;;;;;16.70;10.98;;;;;;;7.48;38.94;100433.00;4974588;28;20117;-62
2022/03/21 07:18:03;;;;;;;19.45;10.60;;;;;;;7.67;38.69;100470.84;4986048;28;20033;-62
2022/03/21 07:20:28;;;;;;;16.23;10.93;;;;;;;7.68;38.55;100468.19;4966279;28;20394;-64
2022/03/21 07:22:55;;;;;;;17.45;11.10;;;;;;;7.74;38.58;100469.63;4994151;28;20062;-62
2022/03/21 07:25:21;;;;;;;17.20;11.13;;;;;;;7.70;39.29;100463.78;4958164;28;20045;-63
2022/03/21 07:27:47;;;;;;;20.15;11.65;;;;;;;7.65;39.83;100463.16;4963840;28;20473;-63
2022/03/21 07:30:13;;;;;;;16.67;11.77;;;;;;;7.74;39.99;100467.03;4962461;28;20077;-62
2022/03/21 07:32:40;;;;;;;19.45;12.27;;;;;;;7.71;39.55;100464.59;4948811;28;20034;-62
2022/03/21 07:35:05;;;;;;;17.17;11.48;;;;;;;7.53;39.24;100424.97;4981010;28;20031;-62
2022/03/21 07:37:52;;;;;;;18.75;11.45;;;;;;;7.61;38.73;100437.50;4988464;28;20580;-63
2022/03/21 07:40:18;;;;;;;15.82;10.00;;;;;;;7.54;38.58;100430.97;4946032;28;20558;-65
2022/03/21 07:42:45;;;;;;;18.38;10.80;;;;;;;7.85;38.87;100475.06;4961089;28;20027;-64
2022/03/21 07:47:56;;;;;;;16.23;9.85;;;;;;;7.89;37.08;100479.16;4966391;28;20110;-62
2022/03/21 07:50:24;;;;;;;13.52;9.77;;;;;;;7.89;36.78;100473.97;4976624;28;20114;-64
2022/03/21 07:52:51;;;;;;;14.70;10.38;;;;;;;7.64;37.09;100424.41;4981315;28;20027;-62
2022/03/21 07:55:16;;;;;;;14.43;10.27;;;;;;;7.85;36.19;100467.28;4950760;28;20031;-63
2022/03/21 07:57:42;;;;;;;14.45;9.60;;;;;;;7.91;35.92;100468.72;4955982;28;20030;-62
2022/03/21 08:00:11;;;;;;;17.98;10.57;;;;;;;7.94;35.33;100470.28;4940056;28;20093;-62
2022/03/21 08:02:37;;;;;;;13.57;9.48;;;;;;;7.55;35.55;100414.53;4986746;28;20382;-63
2022/03/21 08:05:04;;;;;;;14.70;9.48;;;;;;;7.85;36.09;100458.69;4981515;28;20047;-65
2022/03/21 08:07:31;;;;;;;16.20;9.32;;;;;;;7.94;36.27;100460.78;4955962;28;20033;-62
2022/03/21 08:09:56;;;;;;;15.43;9.70;;;;;;;7.98;35.83;100462.28;4982346;28;20031;-62
2022/03/21 08:12:22;;;;;;;14.85;9.20;;;;;;;8.02;34.43;100462.97;4960806;28;20038;-62
2022/03/21 08:14:47;;;;;;;13.13;9.18;;;;;;;7.99;34.66;100463.13;4964325;28;20859;-63
2022/03/21 08:17:13;;;;;;;13.55;8.32;;;;;;;7.77;34.95;100428.00;4947441;28;20031;-63
2022/03/21 08:19:38;;;;;;;14.18;9.25;;;;;;;7.99;35.87;100460.53;4969156;28;20861;-62
2022/03/21 08:22:07;;;;;;;17.13;10.43;;;;;;;8.01;34.57;100461.28;4960152;28;20689;-63
2022/03/21 08:24:35;;;;;;;14.45;9.25;;;;;;;7.99;35.18;100456.16;4979133;28;20117;-62
2022/03/21 08:27:01;;;;;;;16.75;9.68;;;;;;;8.00;35.08;100465.63;4987266;28;20019;-62
2022/03/21 08:29:26;;;;;;;14.43;9.73;;;;;;;8.02;34.44;100460.38;4982375;28;20097;-64
2022/03/21 08:31:52;;;;;;;16.60;9.07;;;;;;;8.00;33.31;100454.44;4989770;28;20372;-62
2022/03/21 08:34:17;;;;;;;16.73;9.90;;;;;;;7.86;32.71;100452.59;4976633;28;20720;-64
2022/03/21 08:36:43;;;;;;;14.38;9.90;;;;;;;7.86;33.83;100458.59;4975861;28;20129;-62
2022/03/21 08:39:10;;;;;;;15.38;9.85;;;;;;;7.87;33.60;100467.22;4947394;28;20027;-63
2022/03/21 08:41:36;;;;;;;14.70;9.68;;;;;;;7.93;34.07;100463.47;4987343;28;20023;-63
2022/03/21 08:44:02;;;;;;;16.95;10.43;;;;;;;7.97;34.62;100458.00;4962371;28;20601;-64
2022/03/21 08:46:27;;;;;;;17.45;9.20;;;;;;;8.00;34.38;100467.41;4972351;28;20035;-62
2022/03/21 08:51:37;;;;;;;17.35;9.48;;;;;;;8.08;33.96;100454.84;4950835;28;20078;-61
2022/03/21 08:54:04;;;;;;;17.17;10.45;;;;;;;8.07;34.27;100448.00;4947389;28;20802;-62
2022/03/21 08:56:29;;;;;;;15.45;10.18;;;;;;;8.11;33.81;100440.91;4989520;28;20034;-62
2022/03/21 08:58:56;;;;;;;15.57;10.85;;;;;;;8.17;33.93;100449.16;4941049;28;20034;-64
2022/03/21 09:01:22;;;;;;;14.63;10.98;;;;;;;8.19;33.78;100449.06;4972243;28;20121;-63
2022/03/21 09:03:48;;;;;;;15.70;10.10;;;;;;;8.18;34.52;100450.00;4974998;28;20026;-63
2022/03/21 09:06:15;;;;;;;15.80;10.90;;;;;;;8.19;34.22;100436.13;4953928;28;20031;-65
2022/03/21 09:08:42;;;;;;;14.68;10.27;;;;;;;8.15;33.88;100425.09;4947037;28;20077;-64
2022/03/21 09:11:08;;;;;;;18.67;10.52;;;;;;;8.33;33.66;100446.56;4943416;28;20398;-65
2022/03/21 09:13:34;;;;;;;17.83;10.80;;;;;;;8.31;33.94;100437.22;4986045;28;20553;-64
2022/03/21 09:16:00;;;;;;;16.20;10.27;;;;;;;8.45;33.18;100434.69;4962630;28;20027;-62
2022/03/21 09:18:25;;;;;;;17.30;11.38;;;;;;;8.41;34.23;100430.56;4955835;28;20088;-62
2022/03/21 09:20:51;;;;;;;16.40;10.88;;;;;;;8.53;33.19;100429.09;4961941;28;20118;-60
2022/03/21 09:23:16;;;;;;;15.32;10.73;;;;;;;8.36;33.17;100396.28;4959345;28;20600;-62
2022/03/21 09:25:43;;;;;;;17.60;10.82;;;;;;;8.71;32.85;100429.81;4994579;28;20026;-61
2022/03/21 09:28:08;;;;;;;19.23;11.40;;;;;;;8.73;33.29;100431.38;4951306;28;20401;-62
2022/03/21 09:30:34;;;;;;;15.85;10.85;;;;;;;8.84;34.29;100421.22;4997139;28;20788;-63
2022/03/21 09:32:59;;;;;;;15.20;10.55;;;;;;;8.90;33.99;100422.59;4989229;28;20619;-64
2022/03/21 09:35:25;;;;;;;17.48;10.80;;;;;;;9.02;33.80;100419.28;4986576;28;20042;-63
2022/03/21 09:37:50;;;;;;;20.10;10.88;;;;;;;9.15;33.34;100421.19;4987204;28;20027;-62
2022/03/21 09:40:19;;;;;;;18.13;11.23;;;;;;;9.26;32.98;100420.53;4947952;28;20023;-63
2022/03/21 09:42:45;;;;;;;14.50;10.27;;;;;;;9.31;32.47;100410.69;4984392;28;20038;-62
2022/03/21 09:45:13;;;;;;;15.02;10.35;;;;;;;9.37;32.48;100411.16;4943028;28;20051;-61
2022/03/21 09:50:28;;;;;;;14.88;10.57;;;;;;;9.46;32.23;100395.97;4968968;28;20457;-65
2022/03/21 09:52:53;;;;;;;17.10;10.90;;;;;;;9.57;33.28;100406.53;4960483;28;20041;-62
2022/03/21 09:55:19;;;;;;;18.40;10.73;;;;;;;9.60;33.02;100408.91;4959365;28;20031;-64
2022/03/21 09:57:44;;;;;;;17.70;11.18;;;;;;;9.65;32.99;100396.47;4939425;28;20647;-65
2022/03/21 10:00:11;;;;;;;14.98;11.45;;;;;;;9.69;32.31;100397.97;4983290;28;20079;-62
2022/03/21 10:02:37;;;;;;;15.55;10.82;;;;;;;9.29;33.29;100340.72;4946660;28;20122;-62
2022/03/21 10:05:02;;;;;;;16.98;11.05;;;;;;;9.68;32.83;100391.09;4959602;28;20023;-64
2022/03/21 10:07:28;;;;;;;17.10;11.00;;;;;;;9.79;32.29;100391.25;4976602;28;20126;-64
2022/03/21 10:10:08;;;;;;;16.23;11.25;;;;;;;9.88;31.45;100378.63;4982066;28;20106;-64
2022/03/21 10:12:34;;;;;;;17.17;11.18;;;;;;;10.02;32.23;100391.59;4957402;28;20078;-64
2022/03/21 10:15:00;;;;;;;15.27;10.43;;;;;;;9.99;31.84;100382.22;4990308;28;20348;-61
2022/03/21 10:17:25;;;;;;;15.02;10.68;;;;;;;10.04;31.58;100376.72;4981529;28;20036;-64
2022/03/21 10:19:52;;;;;;;16.63;11.88;;;;;;;10.12;31.99;100377.06;4969775;28;20027;-63
2022/03/21 10:22:33;;;;;;;15.23;11.05;;;;;;;10.15;31.92;100379.47;4984310;28;20039;-63
2022/03/21 10:25:10;;;;;;;16.35;10.93;;;;;;;10.11;32.16;100371.94;4951433;28;20188;-63
2022/03/21 10:27:40;;;;;;;17.40;11.30;;;;;;;9.96;31.72;100334.78;4973416;28;20141;-65
2022/03/21 10:30:11;;;;;;;16.45;10.88;;;;;;;10.22;31.62;100369.50;4956027;28;20450;-65
2022/03/21 10:32:40;;;;;;;16.08;11.23;;;;;;;10.44;30.86;100368.13;4948048;28;20034;-65
2022/03/21 10:35:21;;;;;;;16.05;11.55;;;;;;;10.29;31.62;100357.75;4933856;28;20030;-64
2022/03/21 10:38:01;;;;;;;19.77;11.25;;;;;;;10.36;32.02;100361.66;4978564;28;20027;-64
2022/03/21 10:40:55;;;;;;;23.75;11.48;;;;;;;10.42;32.16;100368.22;4984613;28;20030;-64
2022/03/21 10:43:21;;;;;;;17.75;11.25;;;;;;;10.48;31.52;100359.22;4951134;28;20224;-65
2022/03/21 10:45:54;;;;;;;18.52;11.93;;;;;;;10.19;32.03;100320.31;4944162;28;20121;-64
2022/03/21 10:48:26;;;;;;;17.70;10.98;;;;;;;10.39;31.96;100345.88;4953863;28;20043;-64
2022/03/21 10:50:53;;;;;;;16.02;10.85;;;;;;;10.45;31.90;100349.81;4976438;28;20027;-64
2022/03/21 10:53:33;;;;;;;18.48;11.93;;;;;;;10.37;31.95;100326.13;4949524;28;20035;-65
2022/03/21 10:56:00;;;;;;;17.10;11.63;;;;;;;10.33;31.91;100311.63;4945006;28;20033;-66
2022/03/21 10:58:43;;;;;;;16.38;11.15;;;;;;;10.60;31.70;100345.38;4947994;28;20782;-64
2022/03/21 11:01:17;;;;;;;14.90;11.07;;;;;;;10.67;31.91;100341.44;4959845;28;20026;-64
2022/03/21 11:03:46;;;;;;;22.45;11.25;;;;;;;10.70;31.37;100337.81;4951239;28;20130;-65
2022/03/21 11:06:12;;;;;;;21.00;11.68;;;;;;;10.47;32.29;100303.75;4949356;28;20811;-65
2022/03/21 11:08:38;;;;;;;19.92;11.38;;;;;;;10.79;31.49;100337.19;4984636;28;20023;-63
2022/03/21 11:11:05;;;;;;;18.23;11.55;;;;;;;10.82;31.48;100323.94;4931612;28;20053;-64
2022/03/21 11:13:31;;;;;;;17.58;12.90;;;;;;;10.98;31.07;100330.72;4950885;28;20121;-64
2022/03/21 11:15:57;;;;;;;16.40;11.45;;;;;;;10.99;30.92;100321.94;4953301;28;20081;-63
2022/03/21 11:18:23;;;;;;;16.27;11.50;;;;;;;10.83;31.24;100317.81;4954133;28;20166;-64
2022/03/21 11:20:49;;;;;;;15.27;11.50;;;;;;;10.87;31.22;100311.47;4970756;28;20126;-64
2022/03/21 11:23:15;;;;;;;18.42;11.70;;;;;;;10.86;30.84;100321.97;4950651;28;20047;-65
2022/03/21 11:25:47;;;;;;;17.83;11.63;;;;;;;10.92;31.63;100311.97;4973474;28;20019;-64
2022/03/21 11:28:31;;;;;;;15.60;11.85;;;;;;;11.11;31.67;100316.72;4958433;28;20082;-64
2022/03/21 11:31:04;;;;;;;16.60;11.68;;;;;;;11.36;30.24;100312.44;4959074;28;20030;-65
2022/03/21 11:33:45;;;;;;;17.25;11.98;;;;;;;11.38;30.50;100307.13;4987250;28;20466;-64
2022/03/21 11:36:12;;;;;;;17.90;12.35;;;;;;;11.36;31.08;100302.00;4986073;28;20038;-65
2022/03/21 11:38:47;;;;;;;16.55;11.68;;;;;;;11.46;30.77;100299.56;4957769;28;20680;-65
2022/03/21 11:41:18;;;;;;;19.15;12.60;;;;;;;11.44;31.07;100297.06;4957822;28;20030;-64
2022/03/21 11:43:47;;;;;;;20.88;12.52;;;;;;;11.48;30.49;100293.34;4952393;28;20027;-65